sensor_id;sensor_type;location;lat;lon;timestamp;P1;durP1;ratioP1;P2;durP2;ratioP2
50231;SDS011;36118;56.468;84.952;2024-02-23T00:01:14;19.77;;;6.60;;
50231;SDS011;36118;56.468;84.952;2024-02-23T00:06:18;27.40;;;9.40;;
50231;SDS011;36118;56.468;84.952;2024-02-23T00:11:21;23.42;;;8.32;;
50231;SDS011;36118;56.468;84.952;2024-02-23T00:16:24;34.95;;;12.02;;
50231;SDS011;36118;56.468;84.952;2024-02-23T00:21:31;16.70;;;7.55;;
50231;SDS011;36118;56.468;84.952;2024-02-23T00:26:34;16.27;;;8.50;;
50231;SDS011;36118;56.468;84.952;2024-02-23T00:31:37;20.65;;;8.02;;
50231;SDS011;36118;56.468;84.952;2024-02-23T00:36:43;25.90;;;7.88;;
50231;SDS011;36118;56.468;84.952;2024-02-23T00:41:47;31.95;;;9.18;;
50231;SDS011;36118;56.468;84.952;2024-02-23T00:46:50;30.75;;;11.40;;
50231;SDS011;36118;56.468;84.952;2024-02-23T00:51:54;30.05;;;9.25;;
50231;SDS011;36118;56.468;84.952;2024-02-23T00:56:57;11.68;;;6.97;;
50231;SDS011;36118;56.468;84.952;2024-02-23T01:02:01;24.70;;;9.23;;
50231;SDS011;36118;56.468;84.952;2024-02-23T01:07:04;24.45;;;9.30;;
50231;SDS011;36118;56.468;84.952;2024-02-23T01:12:07;31.20;;;9.43;;
50231;SDS011;36118;56.468;84.952;2024-02-23T01:17:11;9.65;;;3.88;;
50231;SDS011;36118;56.468;84.952;2024-02-23T01:22:16;28.00;;;9.52;;
50231;SDS011;36118;56.468;84.952;2024-02-23T01:27:23;10.00;;;4.25;;
50231;SDS011;36118;56.468;84.952;2024-02-23T01:32:26;32.63;;;12.13;;
50231;SDS011;36118;56.468;84.952;2024-02-23T01:37:32;31.98;;;12.70;;
50231;SDS011;36118;56.468;84.952;2024-02-23T01:42:35;54.17;;;17.33;;
50231;SDS011;36118;56.468;84.952;2024-02-23T01:47:41;21.17;;;8.55;;
50231;SDS011;36118;56.468;84.952;2024-02-23T01:52:46;34.35;;;12.85;;
50231;SDS011;36118;56.468;84.952;2024-02-23T01:57:49;35.25;;;11.65;;
50231;SDS011;36118;56.468;84.952;2024-02-23T02:02:53;21.35;;;9.68;;
50231;SDS011;36118;56.468;84.952;2024-02-23T02:07:57;30.50;;;14.48;;
50231;SDS011;36118;56.468;84.952;2024-02-23T02:13:04;45.35;;;14.93;;
50231;SDS011;36118;56.468;84.952;2024-02-23T02:18:08;83.93;;;24.50;;
50231;SDS011;36118;56.468;84.952;2024-02-23T02:23:12;35.83;;;13.40;;
50231;SDS011;36118;56.468;84.952;2024-02-23T02:28:16;67.65;;;22.80;;
50231;SDS011;36118;56.468;84.952;2024-02-23T02:33:20;33.47;;;13.07;;
50231;SDS011;36118;56.468;84.952;2024-02-23T02:38:24;54.03;;;18.27;;
50231;SDS011;36118;56.468;84.952;2024-02-23T02:43:27;72.80;;;25.00;;
50231;SDS011;36118;56.468;84.952;2024-02-23T02:48:34;44.00;;;15.68;;
50231;SDS011;36118;56.468;84.952;2024-02-23T02:53:39;65.63;;;16.08;;
50231;SDS011;36118;56.468;84.952;2024-02-23T02:58:42;52.53;;;18.60;;
50231;SDS011;36118;56.468;84.952;2024-02-23T03:03:46;63.95;;;25.00;;
50231;SDS011;36118;56.468;84.952;2024-02-23T03:08:50;24.80;;;11.45;;
50231;SDS011;36118;56.468;84.952;2024-02-23T03:13:53;33.25;;;14.75;;
50231;SDS011;36118;56.468;84.952;2024-02-23T03:18:59;45.10;;;17.35;;
50231;SDS011;36118;56.468;84.952;2024-02-23T03:24:05;42.78;;;14.20;;
50231;SDS011;36118;56.468;84.952;2024-02-23T03:29:09;42.90;;;11.00;;
50231;SDS011;36118;56.468;84.952;2024-02-23T03:34:14;39.13;;;14.90;;
50231;SDS011;36118;56.468;84.952;2024-02-23T03:39:18;45.67;;;16.42;;
50231;SDS011;36118;56.468;84.952;2024-02-23T03:44:20;63.72;;;21.20;;
50231;SDS011;36118;56.468;84.952;2024-02-23T03:49:24;89.35;;;28.25;;
50231;SDS011;36118;56.468;84.952;2024-02-23T03:54:28;56.10;;;17.05;;
50231;SDS011;36118;56.468;84.952;2024-02-23T03:59:32;41.85;;;14.15;;
50231;SDS011;36118;56.468;84.952;2024-02-23T04:04:36;47.25;;;14.20;;
50231;SDS011;36118;56.468;84.952;2024-02-23T04:09:41;36.88;;;14.43;;
50231;SDS011;36118;56.468;84.952;2024-02-23T04:14:44;43.85;;;14.80;;
50231;SDS011;36118;56.468;84.952;2024-02-23T04:19:47;37.88;;;12.07;;
50231;SDS011;36118;56.468;84.952;2024-02-23T04:24:50;28.00;;;8.90;;
50231;SDS011;36118;56.468;84.952;2024-02-23T04:29:54;23.42;;;8.93;;
50231;SDS011;36118;56.468;84.952;2024-02-23T04:34:58;34.80;;;13.75;;
50231;SDS011;36118;56.468;84.952;2024-02-23T04:40:01;41.25;;;15.15;;
50231;SDS011;36118;56.468;84.952;2024-02-23T04:45:05;32.58;;;11.70;;
50231;SDS011;36118;56.468;84.952;2024-02-23T04:50:09;21.90;;;5.15;;
50231;SDS011;36118;56.468;84.952;2024-02-23T04:55:13;37.72;;;14.70;;
50231;SDS011;36118;56.468;84.952;2024-02-23T05:00:18;21.40;;;8.23;;
50231;SDS011;36118;56.468;84.952;2024-02-23T05:05:22;26.13;;;9.40;;
50231;SDS011;36118;56.468;84.952;2024-02-23T05:10:25;31.83;;;15.80;;
50231;SDS011;36118;56.468;84.952;2024-02-23T05:15:29;22.88;;;10.02;;
50231;SDS011;36118;56.468;84.952;2024-02-23T05:20:32;34.38;;;15.95;;
50231;SDS011;36118;56.468;84.952;2024-02-23T05:25:36;20.50;;;7.28;;
50231;SDS011;36118;56.468;84.952;2024-02-23T05:30:39;22.67;;;7.88;;
50231;SDS011;36118;56.468;84.952;2024-02-23T05:35:43;15.38;;;5.50;;
50231;SDS011;36118;56.468;84.952;2024-02-23T05:40:48;19.17;;;8.43;;
50231;SDS011;36118;56.468;84.952;2024-02-23T05:45:52;34.88;;;11.15;;
50231;SDS011;36118;56.468;84.952;2024-02-23T05:51:00;23.20;;;9.63;;
50231;SDS011;36118;56.468;84.952;2024-02-23T05:56:03;21.92;;;7.80;;
50231;SDS011;36118;56.468;84.952;2024-02-23T06:01:07;43.97;;;16.10;;
50231;SDS011;36118;56.468;84.952;2024-02-23T06:06:11;32.10;;;13.23;;
50231;SDS011;36118;56.468;84.952;2024-02-23T06:11:14;34.42;;;13.30;;
50231;SDS011;36118;56.468;84.952;2024-02-23T06:16:18;26.13;;;9.05;;
50231;SDS011;36118;56.468;84.952;2024-02-23T06:21:22;34.15;;;10.65;;
50231;SDS011;36118;56.468;84.952;2024-02-23T06:26:25;30.45;;;11.57;;
50231;SDS011;36118;56.468;84.952;2024-02-23T06:31:29;35.30;;;14.10;;
50231;SDS011;36118;56.468;84.952;2024-02-23T06:36:33;50.53;;;16.77;;
50231;SDS011;36118;56.468;84.952;2024-02-23T06:41:37;49.63;;;17.45;;
50231;SDS011;36118;56.468;84.952;2024-02-23T06:46:44;41.90;;;10.18;;
50231;SDS011;36118;56.468;84.952;2024-02-23T06:51:48;44.95;;;16.70;;
50231;SDS011;36118;56.468;84.952;2024-02-23T06:56:51;45.15;;;15.80;;
50231;SDS011;36118;56.468;84.952;2024-02-23T07:01:55;57.30;;;23.52;;
50231;SDS011;36118;56.468;84.952;2024-02-23T07:07:00;36.85;;;13.05;;
50231;SDS011;36118;56.468;84.952;2024-02-23T07:12:09;40.20;;;14.23;;
50231;SDS011;36118;56.468;84.952;2024-02-23T07:17:18;56.10;;;21.60;;
50231;SDS011;36118;56.468;84.952;2024-02-23T07:22:22;41.13;;;13.35;;
50231;SDS011;36118;56.468;84.952;2024-02-23T07:27:26;45.35;;;15.18;;
50231;SDS011;36118;56.468;84.952;2024-02-23T07:32:30;38.03;;;12.77;;
50231;SDS011;36118;56.468;84.952;2024-02-23T07:37:34;29.50;;;14.32;;
50231;SDS011;36118;56.468;84.952;2024-02-23T07:42:37;24.02;;;11.77;;
50231;SDS011;36118;56.468;84.952;2024-02-23T07:47:41;20.60;;;8.95;;
50231;SDS011;36118;56.468;84.952;2024-02-23T07:52:45;16.55;;;8.30;;
50231;SDS011;36118;56.468;84.952;2024-02-23T07:57:48;21.27;;;9.00;;
50231;SDS011;36118;56.468;84.952;2024-02-23T08:02:52;26.85;;;10.77;;
50231;SDS011;36118;56.468;84.952;2024-02-23T08:07:59;28.52;;;10.30;;
50231;SDS011;36118;56.468;84.952;2024-02-23T08:13:04;22.90;;;9.15;;
50231;SDS011;36118;56.468;84.952;2024-02-23T08:18:09;23.17;;;10.50;;
50231;SDS011;36118;56.468;84.952;2024-02-23T08:23:14;18.42;;;8.10;;
50231;SDS011;36118;56.468;84.952;2024-02-23T08:28:18;22.33;;;10.48;;
50231;SDS011;36118;56.468;84.952;2024-02-23T08:33:22;26.80;;;10.52;;
50231;SDS011;36118;56.468;84.952;2024-02-23T08:38:26;21.48;;;8.02;;
50231;SDS011;36118;56.468;84.952;2024-02-23T08:43:29;19.98;;;8.23;;
50231;SDS011;36118;56.468;84.952;2024-02-23T08:48:33;26.77;;;8.77;;
50231;SDS011;36118;56.468;84.952;2024-02-23T08:53:37;24.45;;;8.98;;
50231;SDS011;36118;56.468;84.952;2024-02-23T08:58:40;18.50;;;7.15;;
50231;SDS011;36118;56.468;84.952;2024-02-23T09:03:44;18.63;;;7.60;;
50231;SDS011;36118;56.468;84.952;2024-02-23T09:08:48;12.70;;;4.80;;
50231;SDS011;36118;56.468;84.952;2024-02-23T09:18:55;18.85;;;8.88;;
50231;SDS011;36118;56.468;84.952;2024-02-23T09:23:59;17.25;;;6.00;;
50231;SDS011;36118;56.468;84.952;2024-02-23T09:29:05;21.10;;;7.65;;
50231;SDS011;36118;56.468;84.952;2024-02-23T09:34:15;22.23;;;8.47;;
50231;SDS011;36118;56.468;84.952;2024-02-23T09:39:19;17.70;;;5.53;;
50231;SDS011;36118;56.468;84.952;2024-02-23T09:44:33;17.75;;;6.18;;
50231;SDS011;36118;56.468;84.952;2024-02-23T09:49:39;17.70;;;6.35;;
50231;SDS011;36118;56.468;84.952;2024-02-23T09:54:43;18.95;;;5.63;;
50231;SDS011;36118;56.468;84.952;2024-02-23T09:59:48;17.90;;;7.57;;
50231;SDS011;36118;56.468;84.952;2024-02-23T10:04:52;23.70;;;10.38;;
50231;SDS011;36118;56.468;84.952;2024-02-23T10:09:58;16.20;;;7.18;;
50231;SDS011;36118;56.468;84.952;2024-02-23T10:15:02;15.52;;;4.45;;
50231;SDS011;36118;56.468;84.952;2024-02-23T10:20:07;15.38;;;4.95;;
50231;SDS011;36118;56.468;84.952;2024-02-23T10:25:10;14.45;;;5.57;;
50231;SDS011;36118;56.468;84.952;2024-02-23T10:35:19;20.33;;;6.05;;
50231;SDS011;36118;56.468;84.952;2024-02-23T10:40:24;13.05;;;5.50;;
50231;SDS011;36118;56.468;84.952;2024-02-23T10:45:29;15.40;;;5.95;;
50231;SDS011;36118;56.468;84.952;2024-02-23T10:50:34;17.67;;;6.40;;
50231;SDS011;36118;56.468;84.952;2024-02-23T10:55:38;19.08;;;6.10;;
50231;SDS011;36118;56.468;84.952;2024-02-23T11:05:48;17.10;;;6.13;;
50231;SDS011;36118;56.468;84.952;2024-02-23T11:10:52;21.40;;;7.18;;
50231;SDS011;36118;56.468;84.952;2024-02-23T11:16:00;16.50;;;4.88;;
50231;SDS011;36118;56.468;84.952;2024-02-23T11:21:05;18.88;;;4.75;;
50231;SDS011;36118;56.468;84.952;2024-02-23T11:26:12;15.20;;;5.22;;
50231;SDS011;36118;56.468;84.952;2024-02-23T11:31:18;18.75;;;6.20;;
50231;SDS011;36118;56.468;84.952;2024-02-23T11:41:32;19.02;;;6.30;;
50231;SDS011;36118;56.468;84.952;2024-02-23T11:46:35;15.02;;;4.25;;
50231;SDS011;36118;56.468;84.952;2024-02-23T11:51:40;14.13;;;4.45;;
50231;SDS011;36118;56.468;84.952;2024-02-23T11:56:45;17.75;;;4.88;;
50231;SDS011;36118;56.468;84.952;2024-02-23T12:01:50;14.93;;;5.97;;
50231;SDS011;36118;56.468;84.952;2024-02-23T12:06:54;13.35;;;4.07;;
50231;SDS011;36118;56.468;84.952;2024-02-23T12:11:58;16.27;;;4.78;;
50231;SDS011;36118;56.468;84.952;2024-02-23T12:17:02;22.35;;;5.05;;
50231;SDS011;36118;56.468;84.952;2024-02-23T12:22:06;11.35;;;3.03;;
50231;SDS011;36118;56.468;84.952;2024-02-23T12:27:10;20.42;;;5.28;;
50231;SDS011;36118;56.468;84.952;2024-02-23T12:32:14;18.63;;;5.68;;
50231;SDS011;36118;56.468;84.952;2024-02-23T12:37:18;24.88;;;5.30;;
50231;SDS011;36118;56.468;84.952;2024-02-23T12:42:23;14.98;;;6.38;;
50231;SDS011;36118;56.468;84.952;2024-02-23T12:47:26;20.63;;;6.38;;
50231;SDS011;36118;56.468;84.952;2024-02-23T12:52:30;22.40;;;5.47;;
50231;SDS011;36118;56.468;84.952;2024-02-23T12:57:34;21.58;;;5.88;;
50231;SDS011;36118;56.468;84.952;2024-02-23T13:02:37;21.27;;;6.20;;
50231;SDS011;36118;56.468;84.952;2024-02-23T13:07:41;15.38;;;4.75;;
50231;SDS011;36118;56.468;84.952;2024-02-23T13:12:44;20.27;;;6.45;;
50231;SDS011;36118;56.468;84.952;2024-02-23T13:17:48;19.40;;;6.07;;
50231;SDS011;36118;56.468;84.952;2024-02-23T13:22:51;24.88;;;6.70;;
50231;SDS011;36118;56.468;84.952;2024-02-23T13:27:55;16.50;;;6.07;;
50231;SDS011;36118;56.468;84.952;2024-02-23T13:33:03;27.35;;;8.00;;
50231;SDS011;36118;56.468;84.952;2024-02-23T13:38:08;23.17;;;7.35;;
50231;SDS011;36118;56.468;84.952;2024-02-23T13:43:12;17.92;;;6.13;;
50231;SDS011;36118;56.468;84.952;2024-02-23T13:48:16;22.50;;;7.10;;
50231;SDS011;36118;56.468;84.952;2024-02-23T13:53:22;26.30;;;8.10;;
50231;SDS011;36118;56.468;84.952;2024-02-23T13:58:26;25.60;;;8.95;;
50231;SDS011;36118;56.468;84.952;2024-02-23T14:03:31;24.90;;;8.27;;
50231;SDS011;36118;56.468;84.952;2024-02-23T14:08:34;38.58;;;12.77;;
50231;SDS011;36118;56.468;84.952;2024-02-23T14:13:40;48.10;;;15.10;;
50231;SDS011;36118;56.468;84.952;2024-02-23T14:18:43;46.33;;;15.27;;
50231;SDS011;36118;56.468;84.952;2024-02-23T14:23:47;49.72;;;16.00;;
50231;SDS011;36118;56.468;84.952;2024-02-23T14:28:50;53.28;;;16.30;;
50231;SDS011;36118;56.468;84.952;2024-02-23T14:33:53;58.63;;;18.33;;
50231;SDS011;36118;56.468;84.952;2024-02-23T14:38:58;46.08;;;15.18;;
50231;SDS011;36118;56.468;84.952;2024-02-23T14:44:01;52.53;;;19.63;;
50231;SDS011;36118;56.468;84.952;2024-02-23T14:49:04;69.50;;;21.73;;
50231;SDS011;36118;56.468;84.952;2024-02-23T14:54:08;73.28;;;23.13;;
50231;SDS011;36118;56.468;84.952;2024-02-23T14:59:11;63.60;;;22.77;;
50231;SDS011;36118;56.468;84.952;2024-02-23T15:04:15;96.30;;;29.92;;
50231;SDS011;36118;56.468;84.952;2024-02-23T15:09:20;84.72;;;28.00;;
50231;SDS011;36118;56.468;84.952;2024-02-23T15:14:22;72.53;;;26.40;;
50231;SDS011;36118;56.468;84.952;2024-02-23T15:19:27;62.00;;;22.48;;
50231;SDS011;36118;56.468;84.952;2024-02-23T15:24:31;58.03;;;19.35;;
50231;SDS011;36118;56.468;84.952;2024-02-23T15:29:34;49.95;;;18.30;;
50231;SDS011;36118;56.468;84.952;2024-02-23T15:34:39;43.55;;;15.25;;
50231;SDS011;36118;56.468;84.952;2024-02-23T15:39:44;45.92;;;16.30;;
50231;SDS011;36118;56.468;84.952;2024-02-23T15:44:50;40.25;;;12.85;;
50231;SDS011;36118;56.468;84.952;2024-02-23T15:49:54;40.78;;;13.60;;
50231;SDS011;36118;56.468;84.952;2024-02-23T15:55:17;41.13;;;13.07;;
50231;SDS011;36118;56.468;84.952;2024-02-23T16:00:21;41.47;;;14.55;;
50231;SDS011;36118;56.468;84.952;2024-02-23T16:05:24;43.67;;;15.20;;
50231;SDS011;36118;56.468;84.952;2024-02-23T16:10:28;47.42;;;16.38;;
50231;SDS011;36118;56.468;84.952;2024-02-23T16:15:32;71.88;;;22.65;;
50231;SDS011;36118;56.468;84.952;2024-02-23T16:20:35;133.50;;;43.03;;
50231;SDS011;36118;56.468;84.952;2024-02-23T16:25:44;164.57;;;51.00;;
50231;SDS011;36118;56.468;84.952;2024-02-23T16:30:50;158.13;;;54.03;;
50231;SDS011;36118;56.468;84.952;2024-02-23T16:35:54;157.77;;;53.35;;
50231;SDS011;36118;56.468;84.952;2024-02-23T16:41:02;151.38;;;48.35;;
50231;SDS011;36118;56.468;84.952;2024-02-23T16:46:05;136.80;;;42.50;;
50231;SDS011;36118;56.468;84.952;2024-02-23T16:51:09;121.65;;;39.90;;
50231;SDS011;36118;56.468;84.952;2024-02-23T16:56:12;133.63;;;42.10;;
50231;SDS011;36118;56.468;84.952;2024-02-23T17:01:15;130.00;;;43.78;;
50231;SDS011;36118;56.468;84.952;2024-02-23T17:06:19;155.98;;;47.15;;
50231;SDS011;36118;56.468;84.952;2024-02-23T17:11:23;152.52;;;52.78;;
50231;SDS011;36118;56.468;84.952;2024-02-23T17:16:27;163.52;;;43.55;;
50231;SDS011;36118;56.468;84.952;2024-02-23T17:21:31;166.40;;;49.05;;
50231;SDS011;36118;56.468;84.952;2024-02-23T17:26:34;147.85;;;43.78;;
50231;SDS011;36118;56.468;84.952;2024-02-23T17:31:37;138.45;;;38.25;;
50231;SDS011;36118;56.468;84.952;2024-02-23T17:36:41;111.00;;;30.85;;
50231;SDS011;36118;56.468;84.952;2024-02-23T17:41:45;45.92;;;16.98;;
50231;SDS011;36118;56.468;84.952;2024-02-23T17:46:48;52.65;;;16.92;;
50231;SDS011;36118;56.468;84.952;2024-02-23T17:51:55;89.50;;;29.48;;
50231;SDS011;36118;56.468;84.952;2024-02-23T17:56:58;75.13;;;25.13;;
50231;SDS011;36118;56.468;84.952;2024-02-23T18:02:01;43.10;;;12.57;;
50231;SDS011;36118;56.468;84.952;2024-02-23T18:07:04;44.13;;;16.42;;
50231;SDS011;36118;56.468;84.952;2024-02-23T18:12:07;32.92;;;11.13;;
50231;SDS011;36118;56.468;84.952;2024-02-23T18:17:11;54.80;;;18.27;;
50231;SDS011;36118;56.468;84.952;2024-02-23T18:22:14;64.78;;;19.55;;
50231;SDS011;36118;56.468;84.952;2024-02-23T18:27:18;47.15;;;16.50;;
50231;SDS011;36118;56.468;84.952;2024-02-23T18:32:22;67.97;;;20.77;;
50231;SDS011;36118;56.468;84.952;2024-02-23T18:37:25;63.88;;;21.90;;
50231;SDS011;36118;56.468;84.952;2024-02-23T18:42:28;66.90;;;19.45;;
50231;SDS011;36118;56.468;84.952;2024-02-23T18:47:31;54.80;;;15.52;;
50231;SDS011;36118;56.468;84.952;2024-02-23T18:52:35;42.90;;;12.40;;
50231;SDS011;36118;56.468;84.952;2024-02-23T18:57:38;38.67;;;12.32;;
50231;SDS011;36118;56.468;84.952;2024-02-23T19:02:45;32.47;;;11.88;;
50231;SDS011;36118;56.468;84.952;2024-02-23T19:07:49;31.52;;;10.00;;
50231;SDS011;36118;56.468;84.952;2024-02-23T19:12:52;32.47;;;10.95;;
50231;SDS011;36118;56.468;84.952;2024-02-23T19:17:55;60.83;;;17.05;;
50231;SDS011;36118;56.468;84.952;2024-02-23T19:22:59;30.55;;;10.20;;
50231;SDS011;36118;56.468;84.952;2024-02-23T19:28:03;60.75;;;18.75;;
50231;SDS011;36118;56.468;84.952;2024-02-23T19:33:07;93.07;;;32.22;;
50231;SDS011;36118;56.468;84.952;2024-02-23T19:38:10;78.90;;;25.92;;
50231;SDS011;36118;56.468;84.952;2024-02-23T19:43:13;80.88;;;26.45;;
50231;SDS011;36118;56.468;84.952;2024-02-23T19:48:17;113.65;;;38.83;;
50231;SDS011;36118;56.468;84.952;2024-02-23T19:53:20;107.85;;;35.60;;
50231;SDS011;36118;56.468;84.952;2024-02-23T19:58:23;95.40;;;32.50;;
50231;SDS011;36118;56.468;84.952;2024-02-23T20:03:27;117.38;;;39.65;;
50231;SDS011;36118;56.468;84.952;2024-02-23T20:08:30;106.93;;;36.42;;
50231;SDS011;36118;56.468;84.952;2024-02-23T20:13:33;89.38;;;27.48;;
50231;SDS011;36118;56.468;84.952;2024-02-23T20:18:37;107.65;;;32.13;;
50231;SDS011;36118;56.468;84.952;2024-02-23T20:23:41;82.97;;;26.70;;
50231;SDS011;36118;56.468;84.952;2024-02-23T20:28:44;108.32;;;32.47;;
50231;SDS011;36118;56.468;84.952;2024-02-23T20:33:47;124.85;;;34.35;;
50231;SDS011;36118;56.468;84.952;2024-02-23T20:38:51;144.57;;;44.88;;
50231;SDS011;36118;56.468;84.952;2024-02-23T20:43:54;122.25;;;34.03;;
50231;SDS011;36118;56.468;84.952;2024-02-23T20:48:57;110.43;;;29.65;;
50231;SDS011;36118;56.468;84.952;2024-02-23T20:54:02;100.80;;;31.75;;
50231;SDS011;36118;56.468;84.952;2024-02-23T20:59:06;119.85;;;38.38;;
50231;SDS011;36118;56.468;84.952;2024-02-23T21:04:09;114.72;;;32.17;;
50231;SDS011;36118;56.468;84.952;2024-02-23T21:09:13;101.32;;;34.67;;
50231;SDS011;36118;56.468;84.952;2024-02-23T21:14:18;127.38;;;38.13;;
50231;SDS011;36118;56.468;84.952;2024-02-23T21:19:21;113.07;;;36.78;;
50231;SDS011;36118;56.468;84.952;2024-02-23T21:24:24;115.32;;;33.47;;
50231;SDS011;36118;56.468;84.952;2024-02-23T21:29:27;107.80;;;35.80;;
50231;SDS011;36118;56.468;84.952;2024-02-23T21:34:31;100.35;;;32.60;;
50231;SDS011;36118;56.468;84.952;2024-02-23T21:39:35;106.57;;;34.28;;
50231;SDS011;36118;56.468;84.952;2024-02-23T21:44:38;119.05;;;34.40;;
50231;SDS011;36118;56.468;84.952;2024-02-23T21:49:42;92.38;;;33.05;;
50231;SDS011;36118;56.468;84.952;2024-02-23T21:54:46;113.20;;;37.35;;
50231;SDS011;36118;56.468;84.952;2024-02-23T21:59:50;88.40;;;29.45;;
50231;SDS011;36118;56.468;84.952;2024-02-23T22:04:57;109.88;;;32.28;;
50231;SDS011;36118;56.468;84.952;2024-02-23T22:10:00;115.95;;;37.97;;
50231;SDS011;36118;56.468;84.952;2024-02-23T22:15:03;87.60;;;32.60;;
50231;SDS011;36118;56.468;84.952;2024-02-23T22:20:07;79.85;;;27.58;;
50231;SDS011;36118;56.468;84.952;2024-02-23T22:25:11;82.22;;;29.60;;
50231;SDS011;36118;56.468;84.952;2024-02-23T22:30:16;96.45;;;31.02;;
50231;SDS011;36118;56.468;84.952;2024-02-23T22:35:19;76.57;;;25.35;;
50231;SDS011;36118;56.468;84.952;2024-02-23T22:40:25;77.63;;;23.90;;
50231;SDS011;36118;56.468;84.952;2024-02-23T22:45:29;72.53;;;26.10;;
50231;SDS011;36118;56.468;84.952;2024-02-23T22:50:32;74.85;;;23.27;;
50231;SDS011;36118;56.468;84.952;2024-02-23T22:55:35;88.72;;;26.85;;
50231;SDS011;36118;56.468;84.952;2024-02-23T23:00:38;77.68;;;26.13;;
50231;SDS011;36118;56.468;84.952;2024-02-23T23:05:44;72.53;;;24.10;;
50231;SDS011;36118;56.468;84.952;2024-02-23T23:10:47;82.68;;;26.95;;
50231;SDS011;36118;56.468;84.952;2024-02-23T23:15:51;70.85;;;25.13;;
50231;SDS011;36118;56.468;84.952;2024-02-23T23:20:54;68.43;;;22.33;;
50231;SDS011;36118;56.468;84.952;2024-02-23T23:25:57;71.10;;;21.48;;
50231;SDS011;36118;56.468;84.952;2024-02-23T23:30:59;64.47;;;21.30;;
50231;SDS011;36118;56.468;84.952;2024-02-23T23:36:03;73.82;;;24.35;;
50231;SDS011;36118;56.468;84.952;2024-02-23T23:41:06;64.50;;;21.75;;
50231;SDS011;36118;56.468;84.952;2024-02-23T23:46:09;67.47;;;22.88;;
50231;SDS011;36118;56.468;84.952;2024-02-23T23:51:12;63.75;;;22.98;;
50231;SDS011;36118;56.468;84.952;2024-02-23T23:56:16;90.03;;;25.77;;
